Burmah, Idaho
Current Conditions -  °F | °C
As of 9:01 AM on Tuesday 21 Oct 2014 (Local Time) from KJER Reporting Station
Broken Clouds Broken Clouds  
Wind Chill: 37°   Ceiling: 9000
Heat Index: 42°   Visibility: 10mi
Dew Point: 40°   Wind: 8mph
Humidity: 92%   Direction: 170°S
Pressure: 30"   Gusts: NA
Location:  43.0455°N, 113.979°W
Report Text: KJER 211501Z AUTO 17007KT 10SM SCT003 BKN090 BKN110 06/04 A3000 RMK AO2 T00560044
Loading
Personal Weather Stations






























Interactive Weather Map
Tropical Storm Tracking
New forecast layout! Learn more

10-Day Weather Forecast

Advertisements
Track Severe Weather on mobile